sensor_id;sensor_type;location;lat;lon;timestamp;P1;durP1;ratioP1;P2;durP2;ratioP2
5149;SDS011;2593;52.466;13.436;2022-09-30T00:01:40;19.63;;;10.83;;
5149;SDS011;2593;52.466;13.436;2022-09-30T00:04:06;16.43;;;10.93;;
5149;SDS011;2593;52.466;13.436;2022-09-30T00:06:37;18.27;;;12.03;;
5149;SDS011;2593;52.466;13.436;2022-09-30T00:09:03;16.67;;;11.03;;
5149;SDS011;2593;52.466;13.436;2022-09-30T00:11:30;15.63;;;10.27;;
5149;SDS011;2593;52.466;13.436;2022-09-30T00:13:57;15.57;;;10.20;;
5149;SDS011;2593;52.466;13.436;2022-09-30T00:16:25;14.90;;;9.73;;
5149;SDS011;2593;52.466;13.436;2022-09-30T00:18:53;16.73;;;9.53;;
5149;SDS011;2593;52.466;13.436;2022-09-30T00:21:20;17.03;;;10.20;;
5149;SDS011;2593;52.466;13.436;2022-09-30T00:23:45;18.40;;;11.40;;
5149;SDS011;2593;52.466;13.436;2022-09-30T00:26:12;14.00;;;10.10;;
5149;SDS011;2593;52.466;13.436;2022-09-30T00:28:40;14.70;;;9.97;;
5149;SDS011;2593;52.466;13.436;2022-09-30T00:31:07;15.03;;;10.17;;
5149;SDS011;2593;52.466;13.436;2022-09-30T00:33:35;16.40;;;10.70;;
5149;SDS011;2593;52.466;13.436;2022-09-30T00:36:01;13.07;;;10.23;;
5149;SDS011;2593;52.466;13.436;2022-09-30T00:38:28;16.03;;;10.00;;
5149;SDS011;2593;52.466;13.436;2022-09-30T00:40:53;17.37;;;11.13;;
5149;SDS011;2593;52.466;13.436;2022-09-30T00:43:37;21.30;;;10.80;;
5149;SDS011;2593;52.466;13.436;2022-09-30T00:46:05;16.37;;;10.50;;
5149;SDS011;2593;52.466;13.436;2022-09-30T00:48:48;16.73;;;11.30;;
5149;SDS011;2593;52.466;13.436;2022-09-30T00:51:18;16.30;;;10.37;;
5149;SDS011;2593;52.466;13.436;2022-09-30T00:53:51;18.73;;;12.17;;
5149;SDS011;2593;52.466;13.436;2022-09-30T00:56:24;20.57;;;12.47;;
5149;SDS011;2593;52.466;13.436;2022-09-30T00:58:54;16.30;;;11.30;;
5149;SDS011;2593;52.466;13.436;2022-09-30T01:01:27;18.30;;;11.40;;
5149;SDS011;2593;52.466;13.436;2022-09-30T01:03:53;21.67;;;12.77;;
5149;SDS011;2593;52.466;13.436;2022-09-30T01:06:33;23.37;;;12.97;;
5149;SDS011;2593;52.466;13.436;2022-09-30T01:08:59;29.00;;;11.93;;
5149;SDS011;2593;52.466;13.436;2022-09-30T01:11:26;24.27;;;12.47;;
5149;SDS011;2593;52.466;13.436;2022-09-30T01:13:53;33.43;;;14.07;;
5149;SDS011;2593;52.466;13.436;2022-09-30T01:27:00;35.13;;;15.87;;
5149;SDS011;2593;52.466;13.436;2022-09-30T01:37:32;21.60;;;12.43;;
5149;SDS011;2593;52.466;13.436;2022-09-30T01:46:00;20.00;;;11.00;;
5149;SDS011;2593;52.466;13.436;2022-09-30T01:57:14;22.90;;;12.33;;
5149;SDS011;2593;52.466;13.436;2022-09-30T01:59:46;20.60;;;10.60;;
5149;SDS011;2593;52.466;13.436;2022-09-30T02:02:32;20.97;;;12.40;;
5149;SDS011;2593;52.466;13.436;2022-09-30T02:05:18;18.40;;;11.10;;
5149;SDS011;2593;52.466;13.436;2022-09-30T02:07:50;21.93;;;11.70;;
5149;SDS011;2593;52.466;13.436;2022-09-30T02:10:26;22.63;;;12.97;;
5149;SDS011;2593;52.466;13.436;2022-09-30T02:13:00;25.30;;;13.23;;
5149;SDS011;2593;52.466;13.436;2022-09-30T02:15:34;20.10;;;13.20;;
5149;SDS011;2593;52.466;13.436;2022-09-30T02:18:06;16.40;;;11.00;;
5149;SDS011;2593;52.466;13.436;2022-09-30T02:20:37;18.77;;;12.80;;
5149;SDS011;2593;52.466;13.436;2022-09-30T02:23:07;18.10;;;10.90;;
5149;SDS011;2593;52.466;13.436;2022-09-30T02:25:35;18.77;;;11.07;;
5149;SDS011;2593;52.466;13.436;2022-09-30T02:28:07;15.83;;;11.33;;
5149;SDS011;2593;52.466;13.436;2022-09-30T02:30:37;16.83;;;11.70;;
5149;SDS011;2593;52.466;13.436;2022-09-30T02:33:08;17.23;;;11.20;;
5149;SDS011;2593;52.466;13.436;2022-09-30T02:35:40;16.63;;;11.23;;
5149;SDS011;2593;52.466;13.436;2022-09-30T02:38:21;16.10;;;11.00;;
5149;SDS011;2593;52.466;13.436;2022-09-30T02:40:57;16.03;;;10.20;;
5149;SDS011;2593;52.466;13.436;2022-09-30T02:43:30;13.90;;;9.80;;
5149;SDS011;2593;52.466;13.436;2022-09-30T02:46:19;24.37;;;11.60;;
5149;SDS011;2593;52.466;13.436;2022-09-30T02:54:57;15.70;;;10.40;;
5149;SDS011;2593;52.466;13.436;2022-09-30T03:00:23;18.93;;;11.50;;
5149;SDS011;2593;52.466;13.436;2022-09-30T03:02:49;17.50;;;12.50;;
5149;SDS011;2593;52.466;13.436;2022-09-30T03:05:20;18.17;;;11.70;;
5149;SDS011;2593;52.466;13.436;2022-09-30T03:07:45;17.00;;;11.80;;
5149;SDS011;2593;52.466;13.436;2022-09-30T03:10:14;21.43;;;14.20;;
5149;SDS011;2593;52.466;13.436;2022-09-30T03:12:45;20.67;;;13.10;;
5149;SDS011;2593;52.466;13.436;2022-09-30T03:18:06;15.00;;;10.60;;
5149;SDS011;2593;52.466;13.436;2022-09-30T03:20:58;16.80;;;10.20;;
5149;SDS011;2593;52.466;13.436;2022-09-30T03:29:33;15.37;;;9.77;;
5149;SDS011;2593;52.466;13.436;2022-09-30T03:32:21;13.20;;;10.13;;
5149;SDS011;2593;52.466;13.436;2022-09-30T03:38:22;13.27;;;9.80;;
5149;SDS011;2593;52.466;13.436;2022-09-30T03:41:08;16.00;;;9.90;;
5149;SDS011;2593;52.466;13.436;2022-09-30T03:46:33;18.27;;;12.67;;
5149;SDS011;2593;52.466;13.436;2022-09-30T03:49:07;17.03;;;10.23;;
5149;SDS011;2593;52.466;13.436;2022-09-30T03:51:37;19.30;;;12.00;;
5149;SDS011;2593;52.466;13.436;2022-09-30T03:54:05;13.33;;;10.73;;
5149;SDS011;2593;52.466;13.436;2022-09-30T03:56:37;19.93;;;11.77;;
5149;SDS011;2593;52.466;13.436;2022-09-30T03:59:10;15.70;;;11.30;;
5149;SDS011;2593;52.466;13.436;2022-09-30T04:01:47;18.23;;;10.77;;
5149;SDS011;2593;52.466;13.436;2022-09-30T04:04:12;17.37;;;12.10;;
5149;SDS011;2593;52.466;13.436;2022-09-30T04:06:38;15.37;;;10.53;;
5149;SDS011;2593;52.466;13.436;2022-09-30T04:09:04;12.77;;;9.27;;
5149;SDS011;2593;52.466;13.436;2022-09-30T04:11:29;15.03;;;11.40;;
5149;SDS011;2593;52.466;13.436;2022-09-30T04:13:55;17.27;;;10.90;;
5149;SDS011;2593;52.466;13.436;2022-09-30T04:16:20;16.60;;;10.63;;
5149;SDS011;2593;52.466;13.436;2022-09-30T04:18:46;14.53;;;10.00;;
5149;SDS011;2593;52.466;13.436;2022-09-30T04:21:12;19.70;;;11.03;;
5149;SDS011;2593;52.466;13.436;2022-09-30T04:23:40;16.53;;;10.23;;
5149;SDS011;2593;52.466;13.436;2022-09-30T04:26:08;12.30;;;9.83;;
5149;SDS011;2593;52.466;13.436;2022-09-30T04:28:38;14.07;;;10.23;;
5149;SDS011;2593;52.466;13.436;2022-09-30T04:31:04;16.57;;;9.77;;
5149;SDS011;2593;52.466;13.436;2022-09-30T04:33:30;15.10;;;9.50;;
5149;SDS011;2593;52.466;13.436;2022-09-30T04:35:57;20.20;;;10.37;;
5149;SDS011;2593;52.466;13.436;2022-09-30T04:38:23;16.13;;;10.83;;
5149;SDS011;2593;52.466;13.436;2022-09-30T04:40:50;16.90;;;11.30;;
5149;SDS011;2593;52.466;13.436;2022-09-30T04:43:16;15.20;;;11.00;;
5149;SDS011;2593;52.466;13.436;2022-09-30T04:45:45;18.37;;;10.43;;
5149;SDS011;2593;52.466;13.436;2022-09-30T04:48:12;19.30;;;11.07;;
5149;SDS011;2593;52.466;13.436;2022-09-30T04:50:38;18.83;;;10.33;;
5149;SDS011;2593;52.466;13.436;2022-09-30T04:53:03;13.90;;;10.10;;
5149;SDS011;2593;52.466;13.436;2022-09-30T04:55:29;17.53;;;10.67;;
5149;SDS011;2593;52.466;13.436;2022-09-30T04:57:55;18.00;;;10.07;;
5149;SDS011;2593;52.466;13.436;2022-09-30T05:00:20;18.37;;;10.77;;
5149;SDS011;2593;52.466;13.436;2022-09-30T05:02:46;23.20;;;12.60;;
5149;SDS011;2593;52.466;13.436;2022-09-30T05:05:12;20.70;;;10.90;;
5149;SDS011;2593;52.466;13.436;2022-09-30T05:07:38;15.30;;;10.30;;
5149;SDS011;2593;52.466;13.436;2022-09-30T05:10:04;25.73;;;10.80;;
5149;SDS011;2593;52.466;13.436;2022-09-30T05:12:31;24.37;;;11.20;;
5149;SDS011;2593;52.466;13.436;2022-09-30T05:14:56;15.37;;;10.50;;
5149;SDS011;2593;52.466;13.436;2022-09-30T05:17:22;27.87;;;11.10;;
5149;SDS011;2593;52.466;13.436;2022-09-30T05:19:48;34.30;;;11.20;;
5149;SDS011;2593;52.466;13.436;2022-09-30T05:22:13;22.10;;;10.97;;
5149;SDS011;2593;52.466;13.436;2022-09-30T05:24:39;16.57;;;10.73;;
5149;SDS011;2593;52.466;13.436;2022-09-30T05:27:05;25.93;;;12.27;;
5149;SDS011;2593;52.466;13.436;2022-09-30T05:29:31;21.90;;;12.00;;
5149;SDS011;2593;52.466;13.436;2022-09-30T05:31:57;15.07;;;10.43;;
5149;SDS011;2593;52.466;13.436;2022-09-30T05:34:22;36.03;;;11.47;;
5149;SDS011;2593;52.466;13.436;2022-09-30T05:36:48;24.17;;;11.27;;
5149;SDS011;2593;52.466;13.436;2022-09-30T05:39:13;22.70;;;11.40;;
5149;SDS011;2593;52.466;13.436;2022-09-30T05:41:39;15.50;;;10.57;;
5149;SDS011;2593;52.466;13.436;2022-09-30T05:44:05;19.23;;;11.37;;
5149;SDS011;2593;52.466;13.436;2022-09-30T05:46:32;17.63;;;10.37;;
5149;SDS011;2593;52.466;13.436;2022-09-30T05:48:58;17.70;;;11.73;;
5149;SDS011;2593;52.466;13.436;2022-09-30T05:51:23;18.77;;;10.70;;
5149;SDS011;2593;52.466;13.436;2022-09-30T05:53:49;21.70;;;11.10;;
5149;SDS011;2593;52.466;13.436;2022-09-30T05:56:15;19.90;;;12.03;;
5149;SDS011;2593;52.466;13.436;2022-09-30T05:58:41;20.43;;;11.30;;
5149;SDS011;2593;52.466;13.436;2022-09-30T06:01:08;18.23;;;12.23;;
5149;SDS011;2593;52.466;13.436;2022-09-30T06:03:37;20.03;;;12.30;;
5149;SDS011;2593;52.466;13.436;2022-09-30T06:06:06;22.60;;;13.20;;
5149;SDS011;2593;52.466;13.436;2022-09-30T06:08:32;27.27;;;13.77;;
5149;SDS011;2593;52.466;13.436;2022-09-30T06:10:58;21.00;;;11.77;;
5149;SDS011;2593;52.466;13.436;2022-09-30T06:13:24;26.40;;;12.57;;
5149;SDS011;2593;52.466;13.436;2022-09-30T06:15:57;25.17;;;12.03;;
5149;SDS011;2593;52.466;13.436;2022-09-30T06:18:24;21.57;;;12.10;;
5149;SDS011;2593;52.466;13.436;2022-09-30T06:20:51;27.93;;;12.37;;
5149;SDS011;2593;52.466;13.436;2022-09-30T06:23:19;28.63;;;13.90;;
5149;SDS011;2593;52.466;13.436;2022-09-30T06:25:48;21.40;;;12.73;;
5149;SDS011;2593;52.466;13.436;2022-09-30T06:28:14;21.70;;;12.97;;
5149;SDS011;2593;52.466;13.436;2022-09-30T06:30:40;19.53;;;12.20;;
5149;SDS011;2593;52.466;13.436;2022-09-30T06:33:08;26.37;;;11.40;;
5149;SDS011;2593;52.466;13.436;2022-09-30T06:35:34;20.33;;;11.63;;
5149;SDS011;2593;52.466;13.436;2022-09-30T06:37:59;21.33;;;12.80;;
5149;SDS011;2593;52.466;13.436;2022-09-30T06:40:25;21.03;;;12.57;;
5149;SDS011;2593;52.466;13.436;2022-09-30T06:42:51;19.80;;;11.73;;
5149;SDS011;2593;52.466;13.436;2022-09-30T06:45:23;25.70;;;13.07;;
5149;SDS011;2593;52.466;13.436;2022-09-30T06:47:49;26.33;;;11.83;;
5149;SDS011;2593;52.466;13.436;2022-09-30T06:50:16;41.13;;;13.33;;
5149;SDS011;2593;52.466;13.436;2022-09-30T06:52:42;25.70;;;13.10;;
5149;SDS011;2593;52.466;13.436;2022-09-30T06:55:08;23.20;;;13.83;;
5149;SDS011;2593;52.466;13.436;2022-09-30T06:57:33;16.73;;;11.87;;
5149;SDS011;2593;52.466;13.436;2022-09-30T06:59:59;20.73;;;12.87;;
5149;SDS011;2593;52.466;13.436;2022-09-30T07:02:26;22.20;;;11.97;;
5149;SDS011;2593;52.466;13.436;2022-09-30T07:04:53;17.57;;;12.43;;
5149;SDS011;2593;52.466;13.436;2022-09-30T07:07:18;18.83;;;12.20;;
5149;SDS011;2593;52.466;13.436;2022-09-30T07:09:46;28.17;;;13.00;;
5149;SDS011;2593;52.466;13.436;2022-09-30T07:12:12;17.50;;;11.23;;
5149;SDS011;2593;52.466;13.436;2022-09-30T07:14:37;23.30;;;13.03;;
5149;SDS011;2593;52.466;13.436;2022-09-30T07:17:04;20.93;;;12.40;;
5149;SDS011;2593;52.466;13.436;2022-09-30T07:19:30;24.93;;;12.63;;
5149;SDS011;2593;52.466;13.436;2022-09-30T07:21:58;22.53;;;13.20;;
5149;SDS011;2593;52.466;13.436;2022-09-30T07:24:43;22.13;;;12.60;;
5149;SDS011;2593;52.466;13.436;2022-09-30T07:27:09;50.23;;;15.07;;
5149;SDS011;2593;52.466;13.436;2022-09-30T07:29:36;20.40;;;10.90;;
5149;SDS011;2593;52.466;13.436;2022-09-30T07:32:01;22.33;;;12.43;;
5149;SDS011;2593;52.466;13.436;2022-09-30T07:34:28;16.37;;;10.20;;
5149;SDS011;2593;52.466;13.436;2022-09-30T07:36:53;19.57;;;11.33;;
5149;SDS011;2593;52.466;13.436;2022-09-30T07:39:19;21.33;;;12.53;;
5149;SDS011;2593;52.466;13.436;2022-09-30T07:41:44;18.40;;;11.13;;
5149;SDS011;2593;52.466;13.436;2022-09-30T07:44:11;13.17;;;10.37;;
5149;SDS011;2593;52.466;13.436;2022-09-30T07:46:38;16.67;;;9.23;;
5149;SDS011;2593;52.466;13.436;2022-09-30T07:49:05;12.37;;;8.63;;
5149;SDS011;2593;52.466;13.436;2022-09-30T07:51:38;11.60;;;7.20;;
5149;SDS011;2593;52.466;13.436;2022-09-30T07:54:11;9.73;;;7.27;;
5149;SDS011;2593;52.466;13.436;2022-09-30T07:56:39;14.73;;;9.03;;
5149;SDS011;2593;52.466;13.436;2022-09-30T07:59:05;11.10;;;7.40;;
5149;SDS011;2593;52.466;13.436;2022-09-30T08:01:32;16.40;;;8.87;;
5149;SDS011;2593;52.466;13.436;2022-09-30T08:03:59;10.43;;;7.38;;
5149;SDS011;2593;52.466;13.436;2022-09-30T08:06:27;10.88;;;7.38;;
5149;SDS011;2593;52.466;13.436;2022-09-30T08:08:54;8.45;;;7.68;;
5149;SDS011;2593;52.466;13.436;2022-09-30T08:11:22;9.63;;;7.78;;
5149;SDS011;2593;52.466;13.436;2022-09-30T08:13:51;6.90;;;5.68;;
5149;SDS011;2593;52.466;13.436;2022-09-30T08:16:21;10.70;;;6.78;;
5149;SDS011;2593;52.466;13.436;2022-09-30T08:18:48;9.15;;;7.85;;
5149;SDS011;2593;52.466;13.436;2022-09-30T08:21:13;7.72;;;7.00;;
5149;SDS011;2593;52.466;13.436;2022-09-30T08:23:39;8.05;;;7.35;;
5149;SDS011;2593;52.466;13.436;2022-09-30T08:26:06;8.57;;;7.20;;
5149;SDS011;2593;52.466;13.436;2022-09-30T08:28:36;10.90;;;9.80;;
5149;SDS011;2593;52.466;13.436;2022-09-30T08:33:39;7.00;;;6.35;;
5149;SDS011;2593;52.466;13.436;2022-09-30T08:36:06;9.73;;;6.20;;
5149;SDS011;2593;52.466;13.436;2022-09-30T08:38:34;10.48;;;7.05;;
5149;SDS011;2593;52.466;13.436;2022-09-30T08:52:32;7.45;;;6.40;;
5149;SDS011;2593;52.466;13.436;2022-09-30T08:55:04;8.48;;;6.07;;
5149;SDS011;2593;52.466;13.436;2022-09-30T08:57:38;8.63;;;5.72;;
5149;SDS011;2593;52.466;13.436;2022-09-30T09:00:11;6.50;;;5.93;;
5149;SDS011;2593;52.466;13.436;2022-09-30T09:02:49;6.70;;;5.78;;
5149;SDS011;2593;52.466;13.436;2022-09-30T09:05:38;12.10;;;6.57;;
5149;SDS011;2593;52.466;13.436;2022-09-30T09:08:39;7.07;;;6.28;;
5149;SDS011;2593;52.466;13.436;2022-09-30T09:14:49;4.45;;;4.05;;
5149;SDS011;2593;52.466;13.436;2022-09-30T09:20:10;6.57;;;5.93;;
5149;SDS011;2593;52.466;13.436;2022-09-30T09:22:38;6.00;;;5.47;;
5149;SDS011;2593;52.466;13.436;2022-09-30T09:25:05;5.15;;;4.65;;
5149;SDS011;2593;52.466;13.436;2022-09-30T09:27:39;5.03;;;3.65;;
5149;SDS011;2593;52.466;13.436;2022-09-30T09:30:19;7.43;;;5.82;;
5149;SDS011;2593;52.466;13.436;2022-09-30T09:32:53;4.07;;;3.80;;
5149;SDS011;2593;52.466;13.436;2022-09-30T09:38:12;3.80;;;3.50;;
5149;SDS011;2593;52.466;13.436;2022-09-30T09:46:52;5.20;;;4.70;;
5149;SDS011;2593;52.466;13.436;2022-09-30T09:49:44;5.15;;;4.75;;
5149;SDS011;2593;52.466;13.436;2022-09-30T09:57:10;5.70;;;3.67;;
5149;SDS011;2593;52.466;13.436;2022-09-30T09:59:58;4.22;;;3.90;;
5149;SDS011;2593;52.466;13.436;2022-09-30T10:03:03;5.00;;;4.07;;
5149;SDS011;2593;52.466;13.436;2022-09-30T10:05:36;3.97;;;3.10;;
5149;SDS011;2593;52.466;13.436;2022-09-30T10:08:10;4.55;;;4.15;;
5149;SDS011;2593;52.466;13.436;2022-09-30T10:10:43;4.45;;;4.10;;
5149;SDS011;2593;52.466;13.436;2022-09-30T10:13:14;3.78;;;3.58;;
5149;SDS011;2593;52.466;13.436;2022-09-30T10:15:48;4.82;;;4.43;;
5149;SDS011;2593;52.466;13.436;2022-09-30T10:18:19;13.40;;;5.53;;
5149;SDS011;2593;52.466;13.436;2022-09-30T10:20:50;5.10;;;4.80;;
5149;SDS011;2593;52.466;13.436;2022-09-30T10:23:24;7.15;;;5.35;;
5149;SDS011;2593;52.466;13.436;2022-09-30T10:36:35;11.63;;;7.40;;
5149;SDS011;2593;52.466;13.436;2022-09-30T10:44:48;17.07;;;8.83;;
5149;SDS011;2593;52.466;13.436;2022-09-30T10:47:19;9.90;;;7.47;;
5149;SDS011;2593;52.466;13.436;2022-09-30T10:49:52;13.10;;;7.63;;
5149;SDS011;2593;52.466;13.436;2022-09-30T10:52:31;17.57;;;7.17;;
5149;SDS011;2593;52.466;13.436;2022-09-30T10:57:44;8.20;;;6.50;;
5149;SDS011;2593;52.466;13.436;2022-09-30T11:00:16;7.93;;;6.13;;
5149;SDS011;2593;52.466;13.436;2022-09-30T11:02:55;16.60;;;8.70;;
5149;SDS011;2593;52.466;13.436;2022-09-30T11:05:35;8.50;;;7.40;;
5149;SDS011;2593;52.466;13.436;2022-09-30T11:08:08;9.63;;;5.73;;
5149;SDS011;2593;52.466;13.436;2022-09-30T11:10:47;9.00;;;6.40;;
5149;SDS011;2593;52.466;13.436;2022-09-30T11:13:20;7.40;;;6.07;;
5149;SDS011;2593;52.466;13.436;2022-09-30T11:16:02;5.70;;;4.00;;
5149;SDS011;2593;52.466;13.436;2022-09-30T11:24:28;9.87;;;5.83;;
5149;SDS011;2593;52.466;13.436;2022-09-30T11:32:46;7.63;;;4.77;;
5149;SDS011;2593;52.466;13.436;2022-09-30T11:35:39;6.03;;;4.33;;
5149;SDS011;2593;52.466;13.436;2022-09-30T11:38:22;10.70;;;4.80;;
5149;SDS011;2593;52.466;13.436;2022-09-30T11:52:29;10.47;;;4.80;;
5149;SDS011;2593;52.466;13.436;2022-09-30T11:57:50;7.90;;;4.50;;
5149;SDS011;2593;52.466;13.436;2022-09-30T12:00:32;6.40;;;4.80;;
5149;SDS011;2593;52.466;13.436;2022-09-30T12:03:20;7.33;;;5.17;;
5149;SDS011;2593;52.466;13.436;2022-09-30T12:05:52;8.17;;;5.87;;
5149;SDS011;2593;52.466;13.436;2022-09-30T12:08:29;8.03;;;3.63;;
5149;SDS011;2593;52.466;13.436;2022-09-30T12:13:40;3.33;;;2.60;;
5149;SDS011;2593;52.466;13.436;2022-09-30T12:16:18;6.60;;;3.70;;
5149;SDS011;2593;52.466;13.436;2022-09-30T12:18:50;4.13;;;2.50;;
5149;SDS011;2593;52.466;13.436;2022-09-30T12:21:21;3.43;;;3.13;;
5149;SDS011;2593;52.466;13.436;2022-09-30T12:24:01;10.63;;;2.60;;
5149;SDS011;2593;52.466;13.436;2022-09-30T12:26:35;4.63;;;3.20;;
5149;SDS011;2593;52.466;13.436;2022-09-30T12:29:03;4.63;;;2.23;;
5149;SDS011;2593;52.466;13.436;2022-09-30T12:35:19;6.43;;;3.60;;
5149;SDS011;2593;52.466;13.436;2022-09-30T12:37:58;4.50;;;2.73;;
5149;SDS011;2593;52.466;13.436;2022-09-30T12:40:49;3.13;;;2.83;;
5149;SDS011;2593;52.466;13.436;2022-09-30T12:48:46;8.90;;;2.90;;
5149;SDS011;2593;52.466;13.436;2022-09-30T12:51:29;8.00;;;3.40;;
5149;SDS011;2593;52.466;13.436;2022-09-30T12:53:58;6.97;;;3.43;;
5149;SDS011;2593;52.466;13.436;2022-09-30T12:56:40;10.03;;;2.73;;
5149;SDS011;2593;52.466;13.436;2022-09-30T12:59:08;2.90;;;2.70;;
5149;SDS011;2593;52.466;13.436;2022-09-30T13:01:34;4.63;;;3.60;;
5149;SDS011;2593;52.466;13.436;2022-09-30T13:11:41;5.87;;;3.10;;
5149;SDS011;2593;52.466;13.436;2022-09-30T13:19:39;4.30;;;2.20;;
5149;SDS011;2593;52.466;13.436;2022-09-30T13:32:40;2.60;;;2.00;;
5149;SDS011;2593;52.466;13.436;2022-09-30T13:40:50;3.30;;;2.10;;
5149;SDS011;2593;52.466;13.436;2022-09-30T13:43:37;6.87;;;2.20;;
5149;SDS011;2593;52.466;13.436;2022-09-30T13:46:29;6.10;;;2.10;;
5149;SDS011;2593;52.466;13.436;2022-09-30T13:49:08;2.13;;;2.03;;
5149;SDS011;2593;52.466;13.436;2022-09-30T13:51:40;4.43;;;2.80;;
5149;SDS011;2593;52.466;13.436;2022-09-30T13:54:16;4.13;;;2.37;;
5149;SDS011;2593;52.466;13.436;2022-09-30T13:56:51;1.93;;;1.70;;
5149;SDS011;2593;52.466;13.436;2022-09-30T13:59:24;1.90;;;1.70;;
5149;SDS011;2593;52.466;13.436;2022-09-30T14:02:13;3.23;;;2.80;;
5149;SDS011;2593;52.466;13.436;2022-09-30T14:05:04;3.57;;;3.03;;
5149;SDS011;2593;52.466;13.436;2022-09-30T14:16:23;12.80;;;2.40;;
5149;SDS011;2593;52.466;13.436;2022-09-30T14:22:06;3.53;;;2.43;;
5149;SDS011;2593;52.466;13.436;2022-09-30T14:24:35;1.67;;;1.50;;
5149;SDS011;2593;52.466;13.436;2022-09-30T14:34:59;3.83;;;2.73;;
5149;SDS011;2593;52.466;13.436;2022-09-30T14:37:33;3.00;;;1.90;;
5149;SDS011;2593;52.466;13.436;2022-09-30T14:40:06;3.60;;;2.50;;
5149;SDS011;2593;52.466;13.436;2022-09-30T14:42:39;3.10;;;2.20;;
5149;SDS011;2593;52.466;13.436;2022-09-30T14:45:08;2.00;;;1.90;;
5149;SDS011;2593;52.466;13.436;2022-09-30T14:47:45;4.13;;;1.80;;
5149;SDS011;2593;52.466;13.436;2022-09-30T14:50:14;4.60;;;1.93;;
5149;SDS011;2593;52.466;13.436;2022-09-30T14:52:44;2.27;;;1.60;;
5149;SDS011;2593;52.466;13.436;2022-09-30T14:55:18;6.00;;;1.70;;
5149;SDS011;2593;52.466;13.436;2022-09-30T14:57:54;2.93;;;2.07;;
5149;SDS011;2593;52.466;13.436;2022-09-30T15:00:37;3.73;;;1.63;;
5149;SDS011;2593;52.466;13.436;2022-09-30T15:03:02;6.90;;;1.90;;
5149;SDS011;2593;52.466;13.436;2022-09-30T15:05:35;2.30;;;1.83;;
5149;SDS011;2593;52.466;13.436;2022-09-30T15:08:01;2.17;;;1.83;;
5149;SDS011;2593;52.466;13.436;2022-09-30T15:10:27;1.97;;;1.87;;
5149;SDS011;2593;52.466;13.436;2022-09-30T15:12:53;3.83;;;2.00;;
5149;SDS011;2593;52.466;13.436;2022-09-30T15:15:24;5.43;;;1.57;;
5149;SDS011;2593;52.466;13.436;2022-09-30T15:17:55;3.30;;;2.07;;
5149;SDS011;2593;52.466;13.436;2022-09-30T15:22:47;8.30;;;2.53;;
5149;SDS011;2593;52.466;13.436;2022-09-30T15:25:13;5.73;;;2.13;;
5149;SDS011;2593;52.466;13.436;2022-09-30T15:27:40;15.13;;;2.33;;
5149;SDS011;2593;52.466;13.436;2022-09-30T15:30:21;4.87;;;2.43;;
5149;SDS011;2593;52.466;13.436;2022-09-30T15:32:55;2.70;;;2.33;;
5149;SDS011;2593;52.466;13.436;2022-09-30T15:35:22;3.20;;;2.47;;
5149;SDS011;2593;52.466;13.436;2022-09-30T15:37:48;3.63;;;2.20;;
5149;SDS011;2593;52.466;13.436;2022-09-30T15:40:16;8.50;;;2.70;;
5149;SDS011;2593;52.466;13.436;2022-09-30T15:43:09;2.70;;;2.10;;
5149;SDS011;2593;52.466;13.436;2022-09-30T15:45:40;2.57;;;2.37;;
5149;SDS011;2593;52.466;13.436;2022-09-30T15:50:47;5.90;;;3.00;;
5149;SDS011;2593;52.466;13.436;2022-09-30T15:53:20;3.40;;;2.30;;
5149;SDS011;2593;52.466;13.436;2022-09-30T15:55:55;4.07;;;2.67;;
5149;SDS011;2593;52.466;13.436;2022-09-30T15:58:39;4.30;;;2.70;;
5149;SDS011;2593;52.466;13.436;2022-09-30T16:03:46;3.20;;;2.90;;
5149;SDS011;2593;52.466;13.436;2022-09-30T16:06:26;3.43;;;2.37;;
5149;SDS011;2593;52.466;13.436;2022-09-30T16:08:59;3.60;;;2.80;;
5149;SDS011;2593;52.466;13.436;2022-09-30T16:11:34;11.27;;;4.87;;
5149;SDS011;2593;52.466;13.436;2022-09-30T16:14:07;3.77;;;2.70;;
5149;SDS011;2593;52.466;13.436;2022-09-30T16:16:40;3.10;;;2.20;;
5149;SDS011;2593;52.466;13.436;2022-09-30T16:19:14;4.20;;;2.80;;
5149;SDS011;2593;52.466;13.436;2022-09-30T16:21:43;6.43;;;2.70;;
5149;SDS011;2593;52.466;13.436;2022-09-30T16:26:53;4.17;;;2.80;;
5149;SDS011;2593;52.466;13.436;2022-09-30T16:29:25;12.23;;;3.57;;
5149;SDS011;2593;52.466;13.436;2022-09-30T16:31:52;6.30;;;3.57;;
5149;SDS011;2593;52.466;13.436;2022-09-30T16:34:24;4.43;;;3.20;;
5149;SDS011;2593;52.466;13.436;2022-09-30T16:36:52;5.63;;;3.33;;
5149;SDS011;2593;52.466;13.436;2022-09-30T16:39:19;5.40;;;3.57;;
5149;SDS011;2593;52.466;13.436;2022-09-30T16:41:45;7.70;;;3.50;;
5149;SDS011;2593;52.466;13.436;2022-09-30T16:44:11;10.83;;;4.53;;
5149;SDS011;2593;52.466;13.436;2022-09-30T16:46:38;5.80;;;4.60;;
5149;SDS011;2593;52.466;13.436;2022-09-30T16:49:10;11.47;;;4.80;;
5149;SDS011;2593;52.466;13.436;2022-09-30T16:51:39;5.60;;;3.97;;
5149;SDS011;2593;52.466;13.436;2022-09-30T16:54:04;9.10;;;4.10;;
5149;SDS011;2593;52.466;13.436;2022-09-30T16:56:30;8.03;;;4.20;;
5149;SDS011;2593;52.466;13.436;2022-09-30T16:58:55;7.37;;;4.17;;
5149;SDS011;2593;52.466;13.436;2022-09-30T17:01:21;8.03;;;5.23;;
5149;SDS011;2593;52.466;13.436;2022-09-30T17:03:49;6.47;;;5.00;;
5149;SDS011;2593;52.466;13.436;2022-09-30T17:06:17;10.80;;;6.67;;
5149;SDS011;2593;52.466;13.436;2022-09-30T17:08:44;9.73;;;6.30;;
5149;SDS011;2593;52.466;13.436;2022-09-30T17:11:12;6.33;;;5.00;;
5149;SDS011;2593;52.466;13.436;2022-09-30T17:13:39;11.27;;;5.33;;
5149;SDS011;2593;52.466;13.436;2022-09-30T17:16:04;10.77;;;4.50;;
5149;SDS011;2593;52.466;13.436;2022-09-30T17:18:30;5.57;;;5.03;;
5149;SDS011;2593;52.466;13.436;2022-09-30T17:20:56;10.53;;;5.23;;
5149;SDS011;2593;52.466;13.436;2022-09-30T17:23:22;12.93;;;5.60;;
5149;SDS011;2593;52.466;13.436;2022-09-30T17:25:49;8.43;;;5.17;;
5149;SDS011;2593;52.466;13.436;2022-09-30T17:28:16;6.90;;;4.93;;
5149;SDS011;2593;52.466;13.436;2022-09-30T17:30:45;10.77;;;5.30;;
5149;SDS011;2593;52.466;13.436;2022-09-30T17:33:12;7.77;;;5.50;;
5149;SDS011;2593;52.466;13.436;2022-09-30T17:35:38;8.67;;;6.83;;
5149;SDS011;2593;52.466;13.436;2022-09-30T17:38:08;8.07;;;6.23;;
5149;SDS011;2593;52.466;13.436;2022-09-30T17:40:35;9.73;;;6.03;;
5149;SDS011;2593;52.466;13.436;2022-09-30T17:43:19;17.17;;;8.13;;
5149;SDS011;2593;52.466;13.436;2022-09-30T17:45:46;9.43;;;6.57;;
5149;SDS011;2593;52.466;13.436;2022-09-30T17:48:13;9.67;;;7.37;;
5149;SDS011;2593;52.466;13.436;2022-09-30T17:50:41;12.53;;;8.37;;
5149;SDS011;2593;52.466;13.436;2022-09-30T17:53:10;9.77;;;6.90;;
5149;SDS011;2593;52.466;13.436;2022-09-30T17:55:38;12.33;;;6.77;;
5149;SDS011;2593;52.466;13.436;2022-09-30T17:58:05;10.30;;;7.00;;
5149;SDS011;2593;52.466;13.436;2022-09-30T18:00:33;15.13;;;7.60;;
5149;SDS011;2593;52.466;13.436;2022-09-30T18:02:59;11.27;;;8.37;;
5149;SDS011;2593;52.466;13.436;2022-09-30T18:05:25;15.70;;;8.17;;
5149;SDS011;2593;52.466;13.436;2022-09-30T18:07:51;17.03;;;10.53;;
5149;SDS011;2593;52.466;13.436;2022-09-30T18:10:17;33.97;;;9.30;;
5149;SDS011;2593;52.466;13.436;2022-09-30T18:12:43;14.03;;;9.40;;
5149;SDS011;2593;52.466;13.436;2022-09-30T18:15:13;17.67;;;9.70;;
5149;SDS011;2593;52.466;13.436;2022-09-30T18:17:42;14.33;;;9.67;;
5149;SDS011;2593;52.466;13.436;2022-09-30T18:20:08;17.40;;;11.77;;
5149;SDS011;2593;52.466;13.436;2022-09-30T18:22:34;16.30;;;9.37;;
5149;SDS011;2593;52.466;13.436;2022-09-30T18:25:00;20.03;;;10.07;;
5149;SDS011;2593;52.466;13.436;2022-09-30T18:27:44;17.10;;;9.30;;
5149;SDS011;2593;52.466;13.436;2022-09-30T18:30:10;14.90;;;9.30;;
5149;SDS011;2593;52.466;13.436;2022-09-30T18:32:37;15.23;;;8.73;;
5149;SDS011;2593;52.466;13.436;2022-09-30T18:35:03;13.27;;;9.37;;
5149;SDS011;2593;52.466;13.436;2022-09-30T18:37:33;16.77;;;9.17;;